Time;durP1;ratioP1;P1;durP2;ratioP2;P2;SDS_P1;SDS_P2;PMS_P1;PMS_P2;Temp;Humidity;BMP_temperature;BMP_pressure;BME280_temperature;BME280_humidity;BME280_pressure;Samples;Min_cycle;Max_cycle;Signal;HPM_P1;HPM_P2
2023/09/06 04:00:42;;;;;;;3.97;2.00;;;15.00;97.30;;;;;;5909006;23;20403;-90
2023/09/06 04:03:08;;;;;;;2.70;2.50;;;15.00;97.30;;;;;;4969672;28;20457;-89
2023/09/06 04:05:34;;;;;;;6.30;3.03;;;15.00;97.30;;;;;;4971056;28;20441;-88
2023/09/06 04:08:06;;;;;;;6.10;2.20;;;15.00;97.30;;;;;;4970762;28;20698;-88
2023/09/06 04:10:36;;;;;;;3.80;2.63;;;15.00;97.30;;;;;;4961704;28;20426;-87
2023/09/06 04:13:03;;;;;;;7.20;4.30;;;14.90;97.30;;;;;;4951343;28;20419;-88
2023/09/06 04:15:29;;;;;;;4.63;2.33;;;14.90;97.30;;;;;;4953054;29;20423;-88
2023/09/06 04:18:00;;;;;;;2.90;2.47;;;14.80;97.30;;;;;;4951886;28;20739;-87
2023/09/06 04:20:35;;;;;;;2.00;1.93;;;14.80;97.30;;;;;;4952691;28;20509;-87
2023/09/06 04:23:06;;;;;;;3.47;2.90;;;14.80;97.30;;;;;;4951766;29;20450;-88
2023/09/06 04:25:33;;;;;;;1.83;1.73;;;14.80;97.30;;;;;;4944973;29;20909;-86
2023/09/06 04:28:07;;;;;;;4.00;3.77;;;14.70;97.30;;;;;;4951672;29;20465;-87
2023/09/06 04:30:34;;;;;;;3.40;1.73;;;14.70;97.30;;;;;;4951738;28;20414;-87
2023/09/06 04:32:59;;;;;;;2.20;2.00;;;14.70;97.30;;;;;;4951860;28;20482;-87
2023/09/06 04:35:42;;;;;;;2.00;1.80;;;14.70;97.30;;;;;;4951367;29;20419;-87
2023/09/06 04:38:09;;;;;;;3.17;2.97;;;14.60;97.30;;;;;;4951338;29;20210;-88
2023/09/06 04:40:37;;;;;;;3.30;3.10;;;14.60;97.30;;;;;;4952485;28;20418;-87
2023/09/06 04:43:07;;;;;;;3.40;2.93;;;14.60;97.30;;;;;;4951566;28;20462;-86
2023/09/06 04:45:33;;;;;;;2.23;1.93;;;14.60;97.30;;;;;;4952038;28;20423;-88
2023/09/06 04:48:02;;;;;;;2.13;1.83;;;14.60;97.30;;;;;;4952655;29;20576;-89
2023/09/06 04:50:28;;;;;;;2.13;1.97;;;14.50;97.30;;;;;;4944479;28;20422;-85
2023/09/06 04:52:54;;;;;;;1.63;1.53;;;14.50;97.30;;;;;;4949530;28;20801;-87
2023/09/06 04:55:20;;;;;;;2.47;2.27;;;14.50;97.30;;;;;;4950446;28;20561;-87
2023/09/06 04:57:49;;;;;;;2.57;2.37;;;14.50;97.30;;;;;;4949684;28;20657;-87
2023/09/06 05:00:23;;;;;;;4.17;2.30;;;14.50;97.30;;;;;;4950703;28;20434;-87
2023/09/06 05:02:51;;;;;;;1.80;1.70;;;14.50;97.30;;;;;;4951330;28;20473;-88
2023/09/06 05:05:17;;;;;;;7.03;2.50;;;14.50;97.30;;;;;;4950836;28;20945;-86
2023/09/06 05:07:44;;;;;;;1.93;1.83;;;14.50;97.30;;;;;;4951398;28;20438;-88
2023/09/06 05:10:11;;;;;;;3.37;3.17;;;14.50;97.30;;;;;;4951189;29;20183;-86
2023/09/06 05:12:37;;;;;;;4.97;3.03;;;14.50;97.30;;;;;;4951613;28;20520;-87
2023/09/06 05:15:04;;;;;;;2.40;2.20;;;14.50;97.30;;;;;;4951733;28;20426;-87
2023/09/06 05:17:29;;;;;;;3.80;1.73;;;14.50;97.30;;;;;;4967638;28;20419;-87
2023/09/06 05:19:55;;;;;;;10.07;3.20;;;14.50;97.30;;;;;;4952327;28;20798;-87
2023/09/06 05:22:23;;;;;;;3.90;2.70;;;14.50;97.30;;;;;;4951554;28;20226;-87
2023/09/06 05:24:50;;;;;;;2.67;2.47;;;14.50;97.30;;;;;;4955013;28;20195;-87
2023/09/06 05:27:17;;;;;;;10.33;3.87;;;14.50;97.30;;;;;;4954601;28;20434;-87
2023/09/06 05:29:43;;;;;;;2.60;2.03;;;14.60;97.30;;;;;;4955643;28;20455;-87
2023/09/06 05:32:09;;;;;;;4.60;1.90;;;14.60;97.30;;;;;;4954487;28;20521;-86
2023/09/06 05:34:34;;;;;;;3.90;2.60;;;14.70;97.30;;;;;;4954577;29;20183;-87
2023/09/06 05:37:00;;;;;;;2.53;2.33;;;14.70;97.30;;;;;;4954651;29;20176;-88
2023/09/06 05:39:25;;;;;;;6.23;2.10;;;14.80;97.30;;;;;;4954456;28;20183;-87
2023/09/06 05:41:51;;;;;;;2.23;2.00;;;14.80;97.30;;;;;;4954344;28;20203;-87
2023/09/06 05:44:16;;;;;;;2.57;1.60;;;14.80;97.30;;;;;;4954144;28;20187;-86
2023/09/06 05:46:43;;;;;;;3.00;2.80;;;14.90;97.30;;;;;;4954441;29;20187;-87
2023/09/06 05:49:09;;;;;;;1.77;1.67;;;15.00;97.30;;;;;;4954101;28;20222;-86
2023/09/06 05:51:35;;;;;;;2.37;1.40;;;15.00;97.30;;;;;;4956762;28;20918;-87
2023/09/06 05:54:01;;;;;;;3.20;3.00;;;15.00;97.30;;;;;;4954186;28;20462;-87
2023/09/06 05:56:26;;;;;;;6.20;2.73;;;15.10;97.30;;;;;;4955162;28;20454;-87
2023/09/06 05:58:52;;;;;;;4.00;2.20;;;15.20;97.30;;;;;;4954424;29;20594;-88
2023/09/06 06:01:18;;;;;;;4.93;2.30;;;15.20;97.30;;;;;;4953593;28;20245;-87
2023/09/06 06:03:44;;;;;;;4.10;2.50;;;15.30;97.30;;;;;;4953005;28;20250;-88
2023/09/06 06:06:16;;;;;;;2.53;2.33;;;15.30;97.30;;;;;;4953808;28;20462;-87
2023/09/06 06:08:41;;;;;;;2.03;1.93;;;15.40;97.30;;;;;;4952733;29;20484;-87
2023/09/06 06:11:08;;;;;;;3.47;1.93;;;15.50;97.30;;;;;;4953532;28;20466;-87
2023/09/06 06:13:33;;;;;;;3.47;2.20;;;15.50;97.30;;;;;;4953905;28;20571;-87
2023/09/06 06:16:02;;;;;;;2.40;2.20;;;15.60;97.30;;;;;;4953943;28;20426;-87
2023/09/06 06:18:30;;;;;;;2.60;2.03;;;15.60;97.30;;;;;;4953861;28;20193;-87
2023/09/06 06:20:57;;;;;;;3.37;2.80;;;15.70;97.30;;;;;;4953426;28;20461;-87
2023/09/06 06:23:24;;;;;;;3.57;2.70;;;15.80;97.30;;;;;;4953601;29;20462;-87
2023/09/06 06:25:49;;;;;;;3.47;2.70;;;15.80;97.30;;;;;;4953616;29;20863;-87
2023/09/06 06:28:17;;;;;;;1.40;1.30;;;15.90;97.30;;;;;;4953829;28;20796;-87
2023/09/06 06:30:43;;;;;;;3.53;3.10;;;16.00;97.30;;;;;;4953836;28;20212;-87
2023/09/06 06:33:09;;;;;;;3.70;2.30;;;16.00;97.30;;;;;;4953209;28;20490;-87
2023/09/06 06:35:34;;;;;;;3.63;2.37;;;16.10;97.30;;;;;;4954806;28;20206;-87
2023/09/06 06:38:01;;;;;;;3.37;1.70;;;16.20;97.30;;;;;;4954682;29;20420;-88
2023/09/06 06:40:27;;;;;;;2.03;1.27;;;16.30;97.30;;;;;;4953152;28;20194;-87
2023/09/06 06:42:52;;;;;;;39.03;2.97;;;16.30;97.30;;;;;;4953473;28;20431;-87
2023/09/06 06:45:18;;;;;;;1.90;1.43;;;16.40;97.30;;;;;;4952920;29;20396;-88
2023/09/06 06:47:44;;;;;;;3.10;2.23;;;16.50;97.30;;;;;;4953380;29;20529;-87
2023/09/06 06:50:09;;;;;;;6.20;2.50;;;16.60;97.30;;;;;;4952743;29;20178;-87
2023/09/06 06:52:36;;;;;;;1.20;1.20;;;16.70;97.30;;;;;;4953941;28;20217;-87
2023/09/06 06:55:02;;;;;;;3.63;2.73;;;16.80;97.30;;;;;;4952884;28;20672;-87
2023/09/06 06:57:27;;;;;;;2.13;1.80;;;16.90;97.30;;;;;;4952673;29;20415;-87
2023/09/06 06:59:53;;;;;;;3.23;2.40;;;17.00;97.30;;;;;;4952847;28;20437;-89
2023/09/06 07:02:18;;;;;;;2.70;2.50;;;17.10;97.30;;;;;;4953739;28;20250;-87
2023/09/06 07:04:44;;;;;;;2.17;2.00;;;17.20;97.30;;;;;;4952778;28;20183;-87
2023/09/06 07:07:10;;;;;;;1.83;1.73;;;17.40;97.30;;;;;;4952376;28;20267;-87
2023/09/06 07:09:38;;;;;;;3.80;2.53;;;17.40;97.30;;;;;;4952892;28;20529;-87
2023/09/06 07:12:04;;;;;;;1.40;1.30;;;17.60;97.30;;;;;;4952492;28;20203;-88
2023/09/06 07:14:29;;;;;;;1.57;1.57;;;17.70;97.30;;;;;;4952363;28;20419;-87
2023/09/06 07:16:55;;;;;;;1.20;1.10;;;17.80;97.30;;;;;;4952389;28;20463;-88
2023/09/06 07:19:21;;;;;;;2.63;2.43;;;18.00;97.30;;;;;;4952579;28;20210;-87
2023/09/06 07:21:47;;;;;;;0.90;0.80;;;18.10;97.30;;;;;;4951569;28;20454;-87
2023/09/06 07:24:14;;;;;;;3.27;2.27;;;18.20;97.30;;;;;;4951924;28;20191;-87
2023/09/06 07:26:40;;;;;;;5.80;2.00;;;18.30;97.30;;;;;;4943548;29;20195;-87
2023/09/06 07:29:05;;;;;;;1.10;1.00;;;18.40;97.30;;;;;;4952056;28;20700;-87
2023/09/06 07:31:32;;;;;;;1.47;1.37;;;18.50;97.30;;;;;;4951974;28;20269;-88
2023/09/06 07:33:58;;;;;;;4.70;1.43;;;18.60;97.30;;;;;;4952405;29;20175;-87
2023/09/06 07:36:23;;;;;;;1.80;1.70;;;18.80;97.30;;;;;;4952000;29;20941;-88
2023/09/06 07:38:54;;;;;;;1.97;1.87;;;18.90;97.30;;;;;;4953310;28;20210;-87
2023/09/06 07:41:20;;;;;;;1.50;1.40;;;19.00;97.30;;;;;;4952079;28;20210;-87
2023/09/06 07:43:46;;;;;;;3.20;2.37;;;19.10;97.30;;;;;;4952159;28;20431;-88
2023/09/06 07:46:12;;;;;;;1.40;1.30;;;19.30;97.30;;;;;;4951640;28;20424;-88
2023/09/06 07:48:40;;;;;;;2.13;1.70;;;19.40;97.30;;;;;;4952363;28;20588;-88
2023/09/06 07:51:08;;;;;;;1.20;1.10;;;19.50;97.30;;;;;;4952862;28;20970;-89
2023/09/06 07:53:33;;;;;;;2.00;1.83;;;19.60;97.30;;;;;;4953343;28;20419;-88
2023/09/06 07:55:59;;;;;;;1.77;1.70;;;19.70;97.30;;;;;;4953400;29;20423;-87
2023/09/06 07:58:25;;;;;;;7.30;2.10;;;19.80;97.30;;;;;;4952176;28;20178;-88
2023/09/06 08:00:51;;;;;;;2.67;1.47;;;20.00;97.30;;;;;;4951541;28;20447;-88
2023/09/06 08:03:17;;;;;;;2.37;1.53;;;20.10;97.30;;;;;;4952013;29;20277;-87
2023/09/06 08:05:43;;;;;;;1.20;1.10;;;20.20;97.30;;;;;;4951945;28;20435;-88
2023/09/06 08:08:10;;;;;;;1.30;1.20;;;20.30;97.30;;;;;;4952107;28;20437;-88
2023/09/06 08:10:37;;;;;;;1.57;1.47;;;20.40;97.30;;;;;;4951948;28;20218;-88
2023/09/06 08:13:03;;;;;;;1.40;1.30;;;20.50;97.30;;;;;;4951719;28;20741;-87
2023/09/06 08:15:30;;;;;;;6.70;1.63;;;20.60;97.30;;;;;;4952367;29;20427;-88
2023/09/06 08:17:56;;;;;;;3.23;2.17;;;20.80;97.10;;;;;;4952194;29;20457;-87
2023/09/06 08:20:22;;;;;;;1.27;1.17;;;20.90;96.90;;;;;;4951847;28;20427;-86
2023/09/06 08:22:47;;;;;;;1.17;1.10;;;21.00;96.80;;;;;;4951860;28;20191;-88
2023/09/06 08:25:14;;;;;;;4.50;1.30;;;21.10;97.10;;;;;;4952072;29;20653;-88
2023/09/06 08:27:40;;;;;;;1.47;1.47;;;21.20;96.30;;;;;;4953073;28;20187;-88
2023/09/06 08:30:10;;;;;;;8.83;1.80;;;21.30;96.20;;;;;;4951968;28;20439;-87
2023/09/06 08:32:36;;;;;;;3.10;1.57;;;21.40;95.80;;;;;;4950960;28;20470;-88
2023/09/06 08:35:02;;;;;;;3.93;1.30;;;21.50;95.50;;;;;;4951404;28;20426;-87
2023/09/06 08:37:28;;;;;;;3.10;2.10;;;21.60;95.40;;;;;;4952504;28;20806;-88
2023/09/06 08:39:53;;;;;;;1.30;1.20;;;21.70;95.20;;;;;;4950987;29;20194;-88
2023/09/06 08:42:25;;;;;;;2.23;1.50;;;21.70;94.90;;;;;;4952050;28;20210;-88
2023/09/06 08:44:51;;;;;;;1.27;1.13;;;21.90;95.00;;;;;;4945207;29;20183;-88
2023/09/06 08:47:19;;;;;;;1.30;1.30;;;22.00;95.20;;;;;;4952945;28;20462;-88
2023/09/06 08:49:46;;;;;;;1.50;1.40;;;22.10;94.40;;;;;;4953314;28;20454;-88
2023/09/06 08:52:14;;;;;;;1.37;1.00;;;22.10;93.20;;;;;;4952389;28;20469;-88
2023/09/06 08:54:44;;;;;;;1.83;1.30;;;22.20;92.40;;;;;;4952985;28;20507;-88
2023/09/06 08:57:13;;;;;;;2.80;1.63;;;22.30;92.50;;;;;;4955001;28;20781;-88
2023/09/06 08:59:39;;;;;;;1.47;1.37;;;22.40;93.20;;;;;;4956163;28;20458;-88
2023/09/06 09:02:05;;;;;;;1.50;1.40;;;22.50;93.40;;;;;;4955585;28;20478;-89
2023/09/06 09:04:40;;;;;;;3.80;1.63;;;22.60;92.90;;;;;;4956801;28;20418;-89
2023/09/06 09:07:13;;;;;;;4.03;1.70;;;22.70;92.80;;;;;;4956862;28;20435;-88
2023/09/06 09:10:15;;;;;;;2.50;1.43;;;22.80;91.70;;;;;;4955977;28;20435;-88
2023/09/06 09:12:41;;;;;;;1.83;1.47;;;22.90;91.60;;;;;;4900632;29;20478;-87
2023/09/06 09:15:14;;;;;;;2.80;1.80;;;23.00;91.10;;;;;;4942553;29;21027;-88
2023/09/06 09:17:43;;;;;;;2.20;1.47;;;23.10;91.00;;;;;;4955896;29;20442;-88
2023/09/06 09:20:14;;;;;;;1.80;1.13;;;23.20;90.70;;;;;;4955912;28;20434;-88
2023/09/06 09:22:45;;;;;;;2.30;1.30;;;23.30;90.30;;;;;;4955888;28;20580;-88
2023/09/06 09:25:31;;;;;;;3.40;1.43;;;23.40;89.40;;;;;;4956723;28;20487;-89
2023/09/06 09:28:14;;;;;;;2.13;1.30;;;23.40;88.50;;;;;;4957136;29;20509;-89
2023/09/06 09:31:15;;;;;;;1.43;1.00;;;23.50;88.50;;;;;;4956209;28;20428;-90
2023/09/06 09:34:15;;;;;;;;;;;;;;;;;;;;;
2023/09/06 09:36:54;;;;;;;1.80;1.70;;;23.70;87.50;;;;;;4935444;29;20472;-90
2023/09/06 09:39:34;;;;;;;1.30;1.30;;;23.80;87.20;;;;;;4919928;29;20588;-88
2023/09/06 09:42:03;;;;;;;1.00;0.90;;;23.90;87.60;;;;;;4913923;29;20447;-88
2023/09/06 09:44:35;;;;;;;1.63;1.10;;;23.90;87.30;;;;;;4919629;29;21080;-88
2023/09/06 09:47:26;;;;;;;3.53;1.43;;;24.00;87.20;;;;;;4919630;29;20463;-88
2023/09/06 09:50:02;;;;;;;2.10;1.63;;;24.10;87.60;;;;;;4910528;29;20431;-89
2023/09/06 09:52:34;;;;;;;3.70;1.17;;;24.20;86.90;;;;;;4924163;29;20474;-89
2023/09/06 09:55:04;;;;;;;1.23;1.03;;;24.40;85.30;;;;;;4918582;29;20439;-88
2023/09/06 09:58:02;;;;;;;2.13;1.23;;;24.50;85.80;;;;;;4918630;29;20415;-89
2023/09/06 10:00:38;;;;;;;2.00;1.10;;;24.60;84.80;;;;;;4919372;29;20973;-89
2023/09/06 10:04:14;;;;;;;4.00;1.97;;;24.70;84.10;;;;;;4908096;29;20448;-89
2023/09/06 10:06:55;;;;;;;1.20;1.10;;;24.80;84.00;;;;;;4921568;29;20511;-89
2023/09/06 10:09:53;;;;;;;1.50;1.50;;;24.90;83.30;;;;;;4922364;29;20424;-89
2023/09/06 10:15:33;;;;;;;1.00;1.00;;;25.10;83.30;;;;;;4928365;23;20588;-86
2023/09/06 10:17:59;;;;;;;1.37;1.30;;;25.20;83.70;;;;;;4972947;28;20418;-88
2023/09/06 10:20:26;;;;;;;1.20;1.13;;;25.30;83.30;;;;;;4973002;28;20417;-88
2023/09/06 10:22:55;;;;;;;2.07;1.90;;;25.40;83.30;;;;;;4972917;28;20278;-88
2023/09/06 10:25:21;;;;;;;3.43;2.10;;;25.50;83.00;;;;;;4967623;28;20777;-88
2023/09/06 10:28:05;;;;;;;1.57;1.50;;;25.60;83.80;;;;;;4953412;28;21024;-87
2023/09/06 10:30:44;;;;;;;2.10;1.53;;;25.70;82.50;;;;;;4962341;28;20193;-90
2023/09/06 10:33:33;;;;;;;1.00;1.00;;;25.70;82.60;;;;;;4966389;29;20427;-90
2023/09/06 10:36:03;;;;;;;2.03;1.20;;;25.90;82.50;;;;;;4953198;28;20422;-88
2023/09/06 10:38:30;;;;;;;2.10;1.10;;;26.00;82.60;;;;;;4966385;28;20442;-88
2023/09/06 10:40:56;;;;;;;1.47;1.40;;;26.00;81.90;;;;;;4965660;29;20579;-88
2023/09/06 10:43:28;;;;;;;2.23;2.03;;;26.10;81.70;;;;;;4965561;29;20554;-88
2023/09/06 10:45:54;;;;;;;2.10;1.57;;;26.20;82.40;;;;;;4965771;28;20533;-88
2023/09/06 10:48:20;;;;;;;1.13;1.03;;;26.30;82.10;;;;;;4965698;29;20434;-90
2023/09/06 10:51:06;;;;;;;3.20;2.33;;;26.30;80.60;;;;;;4960296;28;20419;-88
2023/09/06 10:53:33;;;;;;;1.90;1.73;;;26.30;80.70;;;;;;4953347;28;21003;-88
2023/09/06 10:56:00;;;;;;;1.40;1.30;;;26.30;80.40;;;;;;4952922;28;20446;-88
2023/09/06 10:58:28;;;;;;;2.00;1.53;;;26.30;80.80;;;;;;4953168;29;20434;-88
2023/09/06 11:01:14;;;;;;;1.53;1.40;;;26.30;81.00;;;;;;4953147;28;20512;-88
2023/09/06 11:03:48;;;;;;;1.90;1.83;;;26.40;82.50;;;;;;4952765;28;20414;-86
2023/09/06 11:06:14;;;;;;;1.20;1.10;;;26.50;82.20;;;;;;4952949;28;20537;-88
2023/09/06 11:08:40;;;;;;;1.50;1.40;;;26.60;81.90;;;;;;4954087;28;20506;-88
2023/09/06 11:11:09;;;;;;;1.30;1.20;;;26.80;82.10;;;;;;4954311;28;20542;-87
2023/09/06 11:13:36;;;;;;;1.43;1.40;;;26.90;81.40;;;;;;4952125;28;20270;-89
2023/09/06 11:16:05;;;;;;;1.07;1.00;;;27.00;80.90;;;;;;4952088;28;20501;-88
2023/09/06 11:18:41;;;;;;;2.07;1.93;;;27.10;81.50;;;;;;4951657;28;20430;-88
2023/09/06 11:21:06;;;;;;;1.53;1.10;;;27.20;80.40;;;;;;4951523;28;20426;-88
2023/09/06 11:23:45;;;;;;;3.00;1.60;;;27.40;80.70;;;;;;4952358;29;20426;-87
2023/09/06 11:26:11;;;;;;;1.43;1.33;;;27.50;80.10;;;;;;4952615;28;20206;-86
2023/09/06 11:28:38;;;;;;;2.77;2.10;;;27.50;78.50;;;;;;4952161;28;20459;-86
2023/09/06 11:31:05;;;;;;;1.37;1.20;;;27.50;78.00;;;;;;4952247;28;20222;-86
2023/09/06 11:33:31;;;;;;;2.00;1.37;;;27.50;80.00;;;;;;4952325;28;20422;-87
2023/09/06 11:35:58;;;;;;;1.63;1.17;;;27.60;80.90;;;;;;4952412;28;20480;-88
2023/09/06 11:38:30;;;;;;;1.50;1.30;;;27.70;80.10;;;;;;4952273;28;20940;-85
2023/09/06 11:40:57;;;;;;;1.77;1.43;;;27.70;80.20;;;;;;4952417;28;20770;-86
2023/09/06 11:43:24;;;;;;;1.17;1.10;;;27.80;79.70;;;;;;4952965;28;20425;-88
2023/09/06 11:45:54;;;;;;;2.10;1.77;;;27.90;78.50;;;;;;4952015;28;21027;-88
2023/09/06 11:48:27;;;;;;;1.90;1.27;;;28.00;79.80;;;;;;4952321;28;20427;-86
2023/09/06 11:51:02;;;;;;;2.37;1.67;;;28.00;79.20;;;;;;4951988;28;20415;-86
2023/09/06 11:53:27;;;;;;;2.30;1.87;;;28.10;78.80;;;;;;4953020;28;20418;-88
2023/09/06 11:55:59;;;;;;;1.97;1.87;;;28.20;77.90;;;;;;4951748;28;20494;-86
2023/09/06 11:58:27;;;;;;;1.77;1.57;;;28.20;77.70;;;;;;4952006;28;20642;-86
2023/09/06 12:00:55;;;;;;;1.43;1.40;;;28.20;78.40;;;;;;4951923;28;20423;-86
2023/09/06 12:03:28;;;;;;;1.80;1.20;;;28.30;78.90;;;;;;4952990;28;20865;-86
2023/09/06 12:05:56;;;;;;;1.67;1.43;;;28.40;78.60;;;;;;4953517;28;20893;-86
2023/09/06 12:08:23;;;;;;;1.70;1.60;;;28.40;77.10;;;;;;4951680;28;20423;-86
2023/09/06 12:10:54;;;;;;;1.57;1.47;;;28.40;78.40;;;;;;4951797;28;20470;-86
2023/09/06 12:13:27;;;;;;;1.73;1.63;;;28.50;78.70;;;;;;4951656;28;20431;-86
2023/09/06 12:15:53;;;;;;;3.03;2.03;;;28.60;78.30;;;;;;4951627;28;20525;-85
2023/09/06 12:18:18;;;;;;;2.10;1.50;;;28.60;77.20;;;;;;4951880;28;20807;-88
2023/09/06 12:20:44;;;;;;;4.13;2.27;;;28.70;77.50;;;;;;4951594;28;20194;-86
2023/09/06 12:23:10;;;;;;;1.00;0.90;;;28.70;78.00;;;;;;4951690;28;20273;-86
2023/09/06 12:25:35;;;;;;;1.03;0.97;;;28.80;77.10;;;;;;4951330;28;20199;-86
2023/09/06 12:28:01;;;;;;;5.20;2.00;;;29.00;77.50;;;;;;4951780;28;20693;-86
2023/09/06 12:30:27;;;;;;;1.47;1.37;;;29.00;76.40;;;;;;4951633;28;20186;-86
2023/09/06 12:32:52;;;;;;;4.07;1.77;;;29.10;74.50;;;;;;4951291;28;20453;-86
2023/09/06 12:35:18;;;;;;;2.70;1.80;;;29.10;76.40;;;;;;4950806;28;20677;-86
2023/09/06 12:37:43;;;;;;;1.20;1.20;;;29.10;76.00;;;;;;4951363;28;20274;-86
2023/09/06 12:40:13;;;;;;;1.57;1.37;;;29.20;77.20;;;;;;4950803;28;20175;-87
2023/09/06 12:42:43;;;;;;;3.03;1.43;;;29.30;75.70;;;;;;4952384;28;20186;-86
2023/09/06 12:45:24;;;;;;;1.83;1.50;;;29.40;75.00;;;;;;4951275;28;20454;-86
2023/09/06 12:47:50;;;;;;;4.00;2.70;;;29.50;75.60;;;;;;4951280;28;20426;-87
2023/09/06 12:50:15;;;;;;;2.07;1.33;;;29.60;75.70;;;;;;4951585;28;20469;-86
2023/09/06 12:52:41;;;;;;;13.00;2.13;;;29.70;75.40;;;;;;4959719;28;20214;-86
2023/09/06 12:55:07;;;;;;;1.80;1.47;;;29.80;74.90;;;;;;4951570;28;20199;-86
2023/09/06 12:57:33;;;;;;;1.57;1.53;;;29.80;74.30;;;;;;4951694;28;20187;-87
2023/09/06 12:59:59;;;;;;;2.10;1.53;;;29.80;74.20;;;;;;4951594;29;20202;-86
2023/09/06 13:02:25;;;;;;;4.63;1.60;;;29.90;72.80;;;;;;4951420;28;20423;-87
2023/09/06 13:04:51;;;;;;;1.00;0.90;;;29.90;73.20;;;;;;4951417;28;20259;-87
2023/09/06 13:07:17;;;;;;;1.23;1.20;;;29.90;71.90;;;;;;4951221;28;20514;-86
2023/09/06 13:09:42;;;;;;;1.13;1.07;;;29.90;73.30;;;;;;4951436;28;20179;-86
2023/09/06 13:12:08;;;;;;;1.70;1.40;;;29.90;73.50;;;;;;4951317;28;20226;-86
2023/09/06 13:14:34;;;;;;;2.00;1.30;;;30.00;73.80;;;;;;4952313;28;20649;-86
2023/09/06 13:16:59;;;;;;;3.13;1.53;;;30.10;73.20;;;;;;4950801;28;20474;-86
2023/09/06 13:19:25;;;;;;;2.03;1.63;;;30.20;73.60;;;;;;4951201;28;20179;-86
2023/09/06 13:21:51;;;;;;;1.13;1.10;;;30.30;72.80;;;;;;4951054;28;20191;-86
2023/09/06 13:24:17;;;;;;;2.00;1.30;;;30.40;74.40;;;;;;4952510;28;20438;-86
2023/09/06 13:26:44;;;;;;;2.33;1.17;;;30.50;74.60;;;;;;4951023;28;20700;-86
2023/09/06 13:29:10;;;;;;;3.17;2.13;;;30.60;73.80;;;;;;4951264;28;20175;-86
2023/09/06 13:31:36;;;;;;;1.80;1.63;;;30.60;73.50;;;;;;4951113;29;20520;-86
2023/09/06 13:34:03;;;;;;;4.10;1.30;;;30.70;73.00;;;;;;4952549;28;20406;-86
2023/09/06 13:36:30;;;;;;;4.60;2.70;;;30.70;72.20;;;;;;4951286;28;20961;-87
2023/09/06 13:38:56;;;;;;;1.63;1.20;;;30.70;72.20;;;;;;4951335;28;20913;-86
2023/09/06 13:41:21;;;;;;;3.83;1.50;;;30.70;72.60;;;;;;4951150;28;20502;-86
2023/09/06 13:43:47;;;;;;;2.40;1.50;;;30.80;72.70;;;;;;4952262;28;20183;-86
2023/09/06 13:46:12;;;;;;;1.97;1.20;;;30.90;72.50;;;;;;4954466;28;20199;-86
2023/09/06 13:48:38;;;;;;;1.67;1.60;;;30.90;72.80;;;;;;4954764;29;20179;-86
2023/09/06 13:51:04;;;;;;;2.50;1.30;;;31.00;72.60;;;;;;4954404;28;20223;-86
2023/09/06 13:53:30;;;;;;;3.27;2.40;;;31.00;72.60;;;;;;4954629;28;20187;-86
2023/09/06 13:55:55;;;;;;;1.23;1.10;;;31.00;71.40;;;;;;4954126;28;20438;-86
2023/09/06 13:58:21;;;;;;;1.00;0.90;;;31.00;72.30;;;;;;4954468;28;20167;-86
2023/09/06 14:00:53;;;;;;;2.07;1.63;;;31.00;71.30;;;;;;4952581;28;20623;-86
2023/09/06 14:03:19;;;;;;;0.90;0.80;;;31.00;71.70;;;;;;4954135;28;20226;-88
2023/09/06 14:05:44;;;;;;;2.13;1.60;;;31.00;71.00;;;;;;4952757;28;20438;-85
2023/09/06 14:08:10;;;;;;;1.53;1.23;;;31.00;72.20;;;;;;4953035;28;20548;-85
2023/09/06 14:10:35;;;;;;;1.43;1.33;;;31.10;71.40;;;;;;4954081;28;20284;-87
2023/09/06 14:13:01;;;;;;;2.90;1.20;;;31.10;71.30;;;;;;4953844;28;20233;-86
2023/09/06 14:15:27;;;;;;;2.73;1.40;;;31.20;71.70;;;;;;4953633;28;20321;-86
2023/09/06 14:17:52;;;;;;;1.20;1.10;;;31.20;71.90;;;;;;4953997;28;20175;-85
2023/09/06 14:20:18;;;;;;;1.40;1.20;;;31.30;71.10;;;;;;4953720;28;20175;-86
2023/09/06 14:22:43;;;;;;;1.30;1.20;;;31.40;71.30;;;;;;4953669;28;20605;-84
2023/09/06 14:25:09;;;;;;;1.70;1.70;;;31.50;71.60;;;;;;4953732;28;20203;-86
2023/09/06 14:27:34;;;;;;;1.57;1.20;;;31.60;69.90;;;;;;4954011;28;20194;-86
2023/09/06 14:30:00;;;;;;;3.37;1.77;;;31.60;70.30;;;;;;4954817;28;20191;-86
2023/09/06 14:32:25;;;;;;;1.30;1.20;;;31.60;70.80;;;;;;4953697;28;20210;-88
2023/09/06 14:34:51;;;;;;;1.23;1.20;;;31.60;71.20;;;;;;4953750;28;20196;-86
2023/09/06 14:37:17;;;;;;;1.30;1.13;;;31.60;68.80;;;;;;4953563;28;20761;-86
2023/09/06 14:39:44;;;;;;;2.70;2.00;;;31.60;69.60;;;;;;4953572;29;20234;-86
2023/09/06 14:42:09;;;;;;;2.10;1.50;;;31.60;68.90;;;;;;4953544;28;20179;-87
2023/09/06 14:44:35;;;;;;;5.20;1.27;;;31.50;68.20;;;;;;4953276;28;20597;-86
2023/09/06 14:47:01;;;;;;;2.03;1.20;;;31.40;69.00;;;;;;4953483;28;20211;-86
2023/09/06 14:49:28;;;;;;;3.70;2.57;;;31.50;69.60;;;;;;4953137;28;20183;-86
2023/09/06 14:51:56;;;;;;;1.27;1.20;;;31.60;69.60;;;;;;4953534;28;20268;-86
2023/09/06 14:54:24;;;;;;;2.13;1.67;;;31.60;69.60;;;;;;4953048;28;20502;-86
2023/09/06 14:56:50;;;;;;;3.90;1.87;;;31.60;68.60;;;;;;4954251;28;20438;-85
2023/09/06 14:59:16;;;;;;;2.63;2.20;;;31.60;68.80;;;;;;4953356;28;20777;-86
2023/09/06 15:01:41;;;;;;;1.13;1.00;;;31.50;69.00;;;;;;4953246;28;20191;-86
2023/09/06 15:04:07;;;;;;;1.70;1.53;;;31.50;69.10;;;;;;4953379;28;20646;-85
2023/09/06 15:06:32;;;;;;;2.60;1.43;;;31.50;69.50;;;;;;4952059;28;20656;-86
2023/09/06 15:08:58;;;;;;;2.53;1.80;;;31.60;69.20;;;;;;4952280;28;20187;-87
2023/09/06 15:11:24;;;;;;;1.43;1.33;;;31.60;69.40;;;;;;4952816;28;20219;-86
2023/09/06 15:13:50;;;;;;;2.13;1.80;;;31.70;69.80;;;;;;4951754;29;20223;-85
2023/09/06 15:16:15;;;;;;;3.10;1.80;;;31.70;69.30;;;;;;4951083;28;20507;-86
2023/09/06 15:18:41;;;;;;;1.63;1.03;;;31.80;68.90;;;;;;4953384;29;20222;-86
2023/09/06 15:21:09;;;;;;;1.50;1.40;;;31.80;69.00;;;;;;4952100;28;20191;-85
2023/09/06 15:23:35;;;;;;;3.10;1.77;;;31.80;68.30;;;;;;4964745;29;20241;-87
2023/09/06 15:26:00;;;;;;;1.47;1.10;;;31.70;68.30;;;;;;4960280;28;20951;-86
2023/09/06 15:28:26;;;;;;;2.50;1.83;;;31.60;68.10;;;;;;4952769;28;20191;-87
2023/09/06 15:30:53;;;;;;;0.80;0.70;;;31.70;68.60;;;;;;4952277;29;20183;-86
2023/09/06 15:33:18;;;;;;;1.47;1.20;;;31.70;68.70;;;;;;4952168;28;20438;-86
2023/09/06 15:35:44;;;;;;;4.33;1.80;;;31.80;69.10;;;;;;4952397;28;20446;-86
2023/09/06 15:38:11;;;;;;;1.77;1.70;;;31.90;68.80;;;;;;4952306;28;20183;-86
2023/09/06 15:40:37;;;;;;;2.50;1.43;;;31.80;68.10;;;;;;4952098;29;20183;-86
2023/09/06 15:43:04;;;;;;;4.30;1.73;;;31.80;68.40;;;;;;4952318;28;20415;-87
2023/09/06 15:45:30;;;;;;;1.47;1.20;;;31.80;68.00;;;;;;4950905;28;20222;-86
2023/09/06 15:47:56;;;;;;;1.73;1.43;;;31.80;68.30;;;;;;4950659;28;20419;-86
2023/09/06 15:50:23;;;;;;;1.50;1.40;;;31.70;68.10;;;;;;4952007;28;20414;-86
2023/09/06 15:52:50;;;;;;;1.20;1.10;;;31.70;68.00;;;;;;4952802;28;20206;-87
2023/09/06 15:55:16;;;;;;;4.50;1.37;;;31.70;69.00;;;;;;4950910;28;20545;-85
2023/09/06 15:57:43;;;;;;;2.90;2.33;;;31.70;69.00;;;;;;4951001;29;20996;-86
2023/09/06 16:00:10;;;;;;;1.60;1.50;;;31.70;69.10;;;;;;4950928;28;20411;-86
2023/09/06 16:02:37;;;;;;;1.73;1.60;;;31.70;69.50;;;;;;4951932;28;20485;-86
2023/09/06 16:05:06;;;;;;;3.50;1.47;;;31.70;69.10;;;;;;4952982;28;20438;-86
2023/09/06 16:07:35;;;;;;;1.90;1.70;;;31.70;69.60;;;;;;4952600;28;20418;-86
2023/09/06 16:10:01;;;;;;;2.10;1.80;;;31.70;69.40;;;;;;4951975;28;20418;-86
2023/09/06 16:12:28;;;;;;;1.57;1.10;;;31.70;69.80;;;;;;4951593;28;20470;-86
2023/09/06 16:14:55;;;;;;;1.73;1.60;;;31.70;70.10;;;;;;4952552;28;20418;-86
2023/09/06 16:17:20;;;;;;;1.73;1.50;;;31.70;69.90;;;;;;4989324;23;20552;-63
2023/09/06 16:19:46;;;;;;;1.60;1.43;;;31.60;69.80;;;;;;4968574;28;20860;-65
2023/09/06 16:22:13;;;;;;;1.40;1.33;;;31.60;70.50;;;;;;4952753;28;20203;-66
2023/09/06 16:24:38;;;;;;;4.90;1.63;;;31.50;70.80;;;;;;4950701;28;20215;-65
2023/09/06 16:27:05;;;;;;;1.90;1.80;;;31.40;70.60;;;;;;4949161;29;20450;-66
2023/09/06 16:29:31;;;;;;;2.07;1.60;;;31.40;71.60;;;;;;4950746;28;20181;-65
2023/09/06 16:31:56;;;;;;;1.60;1.50;;;31.40;71.80;;;;;;4950485;28;20557;-66
2023/09/06 16:34:22;;;;;;;3.13;2.17;;;31.30;71.80;;;;;;4950633;28;20679;-65
2023/09/06 16:36:48;;;;;;;1.73;1.53;;;31.30;71.70;;;;;;4948901;29;20185;-65
2023/09/06 16:39:14;;;;;;;1.47;1.43;;;31.20;71.80;;;;;;4946548;29;20542;-65
2023/09/06 16:41:39;;;;;;;1.40;1.30;;;31.10;71.40;;;;;;4949827;28;20195;-65
2023/09/06 16:44:05;;;;;;;2.93;2.13;;;31.00;71.50;;;;;;4948359;28;20865;-65
2023/09/06 16:46:32;;;;;;;1.23;1.13;;;30.90;72.10;;;;;;4950355;28;20182;-65
2023/09/06 16:48:58;;;;;;;1.13;1.03;;;30.80;72.40;;;;;;4949241;29;20972;-65
2023/09/06 16:51:23;;;;;;;4.23;1.73;;;30.50;72.70;;;;;;4949997;28;20463;-65
2023/09/06 16:53:49;;;;;;;1.77;1.10;;;30.30;73.20;;;;;;4950176;28;20485;-65
2023/09/06 16:56:15;;;;;;;1.20;1.10;;;29.90;74.00;;;;;;4950137;28;20686;-65